Time;durP1;ratioP1;P1;durP2;ratioP2;P2;SDS_P1;SDS_P2;PMS_P1;PMS_P2;Temp;Humidity;BMP_temperature;BMP_pressure;BME280_temperature;BME280_humidity;BME280_pressure;Samples;Min_cycle;Max_cycle;Signal;HPM_P1;HPM_P2
2022/03/16 00:01:18;;;;;;;4.32;2.53;;;20.40;51.40;;;;;;4993429;28;20096;-60
2022/03/16 00:03:44;;;;;;;4.00;2.60;;;20.40;51.40;;;;;;4991638;28;20105;-59
2022/03/16 00:06:10;;;;;;;4.25;2.47;;;20.30;51.40;;;;;;4993178;28;20042;-60
2022/03/16 00:08:35;;;;;;;4.60;3.00;;;20.40;51.40;;;;;;4993556;28;20449;-60
2022/03/16 00:11:01;;;;;;;3.97;2.42;;;20.30;51.40;;;;;;4993017;28;20420;-60
2022/03/16 00:13:26;;;;;;;4.22;2.40;;;20.30;51.40;;;;;;4992957;28;20517;-60
2022/03/16 00:15:52;;;;;;;4.50;2.58;;;20.30;51.30;;;;;;4993586;28;20069;-60
2022/03/16 00:18:19;;;;;;;4.15;2.53;;;20.30;51.30;;;;;;4991934;28;20474;-60
2022/03/16 00:20:46;;;;;;;4.15;2.47;;;20.30;51.30;;;;;;4993287;28;20061;-60
2022/03/16 00:23:12;;;;;;;4.07;2.45;;;20.30;51.30;;;;;;4993063;28;20501;-60
2022/03/16 00:25:37;;;;;;;3.53;2.25;;;20.30;51.20;;;;;;4992400;28;20050;-60
2022/03/16 00:28:03;;;;;;;4.20;2.40;;;20.30;51.30;;;;;;4993238;28;20089;-60
2022/03/16 00:30:29;;;;;;;4.75;2.60;;;20.20;51.20;;;;;;4993280;28;20123;-60
2022/03/16 00:32:54;;;;;;;4.53;2.42;;;20.20;51.20;;;;;;4992183;28;20049;-60
2022/03/16 00:35:20;;;;;;;3.55;2.42;;;20.20;51.20;;;;;;4991489;28;20053;-60
2022/03/16 00:37:46;;;;;;;4.15;2.50;;;20.20;51.20;;;;;;4992767;28;20046;-60
2022/03/16 00:40:12;;;;;;;5.15;2.60;;;20.20;51.20;;;;;;4991603;28;20057;-60
2022/03/16 00:42:37;;;;;;;3.83;2.38;;;20.20;51.10;;;;;;4993145;28;20568;-60
2022/03/16 00:45:03;;;;;;;3.63;2.47;;;20.20;51.10;;;;;;4992843;28;20100;-60
2022/03/16 00:47:28;;;;;;;3.53;2.33;;;20.20;51.10;;;;;;4992527;28;20130;-60
2022/03/16 00:49:54;;;;;;;3.72;2.30;;;20.10;51.00;;;;;;4992831;28;20058;-60
2022/03/16 00:52:19;;;;;;;4.40;2.88;;;20.20;51.10;;;;;;4992826;28;20049;-60
2022/03/16 00:54:45;;;;;;;4.97;2.72;;;20.20;51.10;;;;;;4992248;28;20053;-60
2022/03/16 00:57:10;;;;;;;3.80;2.63;;;20.10;51.00;;;;;;4992751;28;20108;-60
2022/03/16 00:59:36;;;;;;;3.88;2.40;;;20.10;51.00;;;;;;4992994;28;20097;-60
2022/03/16 01:02:02;;;;;;;4.13;2.67;;;20.10;51.00;;;;;;4992627;28;20080;-60
2022/03/16 01:04:28;;;;;;;3.65;2.55;;;20.10;50.90;;;;;;4993083;28;20077;-60
2022/03/16 01:06:53;;;;;;;4.00;2.70;;;20.10;50.90;;;;;;4992202;28;20238;-60
2022/03/16 01:09:19;;;;;;;3.45;2.28;;;20.10;50.90;;;;;;4992618;28;20121;-60
2022/03/16 01:11:45;;;;;;;3.40;2.35;;;20.10;51.00;;;;;;4993213;28;20456;-60
2022/03/16 01:14:10;;;;;;;4.07;2.60;;;20.10;51.00;;;;;;4990738;28;20050;-60
2022/03/16 01:16:39;;;;;;;3.53;2.20;;;20.10;50.90;;;;;;4992817;28;20438;-60
2022/03/16 01:19:05;;;;;;;4.65;2.50;;;20.00;50.90;;;;;;4992822;28;20050;-60
2022/03/16 01:21:31;;;;;;;3.47;2.22;;;20.00;50.70;;;;;;4991575;28;20230;-60
2022/03/16 01:23:56;;;;;;;5.43;2.70;;;20.00;50.80;;;;;;4992084;28;20043;-60
2022/03/16 01:26:22;;;;;;;3.65;2.28;;;20.00;50.80;;;;;;4992640;28;20061;-60
2022/03/16 01:28:47;;;;;;;3.95;2.35;;;20.00;50.80;;;;;;4991994;28;20049;-60
2022/03/16 01:31:13;;;;;;;4.78;2.72;;;20.00;50.80;;;;;;4992310;28;20513;-60
2022/03/16 01:33:38;;;;;;;4.20;2.45;;;20.00;51.60;;;;;;4992921;28;20046;-60
2022/03/16 01:36:04;;;;;;;3.50;2.20;;;19.90;50.80;;;;;;4991902;28;20109;-60
2022/03/16 01:38:29;;;;;;;5.35;2.90;;;20.00;50.90;;;;;;4992614;28;20038;-60
2022/03/16 01:40:56;;;;;;;4.07;2.78;;;19.90;50.90;;;;;;4992697;28;20054;-60
2022/03/16 01:43:21;;;;;;;4.18;2.80;;;19.90;50.70;;;;;;4991808;28;20065;-60
2022/03/16 01:45:50;;;;;;;4.05;2.50;;;19.90;50.70;;;;;;4992716;28;20474;-60
2022/03/16 01:48:16;;;;;;;5.00;2.60;;;19.90;50.70;;;;;;4992501;28;20046;-60
2022/03/16 01:50:42;;;;;;;4.07;2.55;;;19.90;50.80;;;;;;4994507;28;20042;-60
2022/03/16 01:53:07;;;;;;;5.07;2.50;;;19.90;50.80;;;;;;4995810;28;20035;-60
2022/03/16 01:55:33;;;;;;;5.45;2.97;;;19.90;50.70;;;;;;4996134;28;20379;-60
2022/03/16 01:57:58;;;;;;;4.22;2.55;;;19.90;50.80;;;;;;4995125;28;20452;-60
2022/03/16 02:00:24;;;;;;;4.40;2.60;;;19.90;50.80;;;;;;4994241;28;20167;-60
2022/03/16 02:02:49;;;;;;;4.57;2.53;;;19.90;50.70;;;;;;4996109;28;20046;-60
2022/03/16 02:05:15;;;;;;;4.47;2.95;;;19.80;50.70;;;;;;4994866;28;20043;-60
2022/03/16 02:07:42;;;;;;;3.53;2.15;;;19.90;50.70;;;;;;4978282;28;20049;-60
2022/03/16 02:10:08;;;;;;;4.85;2.75;;;19.90;50.70;;;;;;4993667;28;20501;-60
2022/03/16 02:12:46;;;;;;;4.22;2.60;;;19.90;51.50;;;;;;4995912;28;20044;-60
2022/03/16 02:15:12;;;;;;;3.75;2.67;;;19.80;50.60;;;;;;4995269;28;20383;-60
2022/03/16 02:17:38;;;;;;;3.10;2.45;;;19.80;50.70;;;;;;4993888;28;20045;-60
2022/03/16 02:20:05;;;;;;;3.95;2.50;;;19.80;50.70;;;;;;4995340;28;20053;-60
2022/03/16 02:22:31;;;;;;;3.15;2.10;;;19.80;50.70;;;;;;4995663;28;20053;-60
2022/03/16 02:24:56;;;;;;;4.13;2.30;;;19.80;50.70;;;;;;4993634;28;20463;-60
2022/03/16 02:27:22;;;;;;;3.80;2.50;;;19.80;50.60;;;;;;4995206;28;20152;-60
2022/03/16 02:29:48;;;;;;;3.10;2.25;;;19.80;50.60;;;;;;4995395;28;20089;-60
2022/03/16 02:32:14;;;;;;;4.40;2.70;;;19.70;50.60;;;;;;4994374;28;20046;-60
2022/03/16 02:34:39;;;;;;;3.42;2.38;;;19.80;50.70;;;;;;4994946;28;20050;-60
2022/03/16 02:37:05;;;;;;;3.15;2.30;;;19.80;50.70;;;;;;4994764;28;20038;-60
2022/03/16 02:39:30;;;;;;;4.05;2.38;;;19.70;50.60;;;;;;4994595;28;20058;-60
2022/03/16 02:41:56;;;;;;;4.15;2.40;;;19.70;50.50;;;;;;4995482;28;20039;-60
2022/03/16 02:44:22;;;;;;;4.07;2.50;;;19.70;50.50;;;;;;4994915;28;20054;-60
2022/03/16 02:46:47;;;;;;;4.18;2.33;;;19.80;50.50;;;;;;4994572;28;20081;-60
2022/03/16 02:49:13;;;;;;;3.80;2.40;;;19.70;50.40;;;;;;4994768;28;20409;-60
2022/03/16 02:51:38;;;;;;;4.38;2.53;;;19.70;50.50;;;;;;4993466;28;20038;-60
2022/03/16 02:54:04;;;;;;;4.13;2.35;;;19.70;50.50;;;;;;4993734;28;20057;-60
2022/03/16 02:56:30;;;;;;;3.53;2.20;;;19.70;50.40;;;;;;4995140;28;20042;-60
2022/03/16 02:58:56;;;;;;;3.63;2.40;;;19.70;50.40;;;;;;4994967;28;20050;-60
2022/03/16 03:01:22;;;;;;;3.90;2.60;;;19.70;50.30;;;;;;4992771;28;20047;-60
2022/03/16 03:03:47;;;;;;;3.55;2.42;;;19.70;50.30;;;;;;4993312;28;20117;-60
2022/03/16 03:06:13;;;;;;;4.55;2.63;;;19.70;50.30;;;;;;4992991;28;20121;-59
2022/03/16 03:08:38;;;;;;;4.60;2.50;;;19.70;50.30;;;;;;4993575;28;20551;-60
2022/03/16 03:11:04;;;;;;;4.00;2.85;;;19.70;50.20;;;;;;4994354;28;20050;-60
2022/03/16 03:13:29;;;;;;;4.78;2.50;;;19.70;50.20;;;;;;4993597;28;20046;-60
2022/03/16 03:15:55;;;;;;;3.47;2.20;;;19.70;50.20;;;;;;4994722;28;20046;-60
2022/03/16 03:18:21;;;;;;;4.03;2.38;;;19.70;50.20;;;;;;4994286;28;20056;-60
2022/03/16 03:20:47;;;;;;;4.13;2.40;;;19.70;50.20;;;;;;4993792;28;20050;-60
2022/03/16 03:23:12;;;;;;;4.45;2.40;;;19.70;50.10;;;;;;4993875;28;20050;-60
2022/03/16 03:25:38;;;;;;;3.58;2.40;;;19.70;50.00;;;;;;4994642;28;20048;-60
2022/03/16 03:28:03;;;;;;;2.72;2.15;;;19.70;50.00;;;;;;4993320;28;20073;-60
2022/03/16 03:30:29;;;;;;;3.33;2.33;;;19.70;50.10;;;;;;4994533;28;20045;-60
2022/03/16 03:32:55;;;;;;;3.10;2.17;;;19.70;50.10;;;;;;4994280;28;20129;-60
2022/03/16 03:35:21;;;;;;;3.67;2.50;;;19.70;50.10;;;;;;4993000;28;20046;-60
2022/03/16 03:37:46;;;;;;;3.47;2.20;;;19.70;50.10;;;;;;4994230;28;20046;-60
2022/03/16 03:40:12;;;;;;;3.20;2.10;;;19.70;50.00;;;;;;4993647;28;20410;-60
2022/03/16 03:42:37;;;;;;;2.88;2.13;;;19.70;50.00;;;;;;4993095;28;20046;-60
2022/03/16 03:45:03;;;;;;;3.38;2.45;;;19.70;50.00;;;;;;4994088;28;20042;-60
2022/03/16 03:47:29;;;;;;;3.50;1.85;;;19.80;50.00;;;;;;4994065;28;20038;-60
2022/03/16 03:49:54;;;;;;;3.15;2.30;;;19.70;49.90;;;;;;4993202;28;20050;-60
2022/03/16 03:52:20;;;;;;;3.60;2.20;;;19.80;49.90;;;;;;4993500;28;20062;-60
2022/03/16 03:54:45;;;;;;;3.30;2.28;;;19.70;49.80;;;;;;4994292;28;20109;-60
2022/03/16 03:57:11;;;;;;;4.13;2.08;;;19.80;49.80;;;;;;4992755;28;20497;-60
2022/03/16 03:59:36;;;;;;;3.95;2.25;;;19.80;50.50;;;;;;4993574;28;20054;-60
2022/03/16 04:02:02;;;;;;;2.85;2.10;;;19.80;49.70;;;;;;4993936;28;20129;-60
2022/03/16 04:04:27;;;;;;;3.13;2.35;;;19.80;49.60;;;;;;4992388;28;20053;-60
2022/03/16 04:06:53;;;;;;;3.08;2.03;;;19.80;49.60;;;;;;4993375;28;20097;-60
2022/03/16 04:09:18;;;;;;;3.38;2.20;;;19.80;49.60;;;;;;4993280;28;20502;-60
2022/03/16 04:11:44;;;;;;;3.45;2.25;;;19.90;49.60;;;;;;4991340;28;20048;-60
2022/03/16 04:14:10;;;;;;;3.53;2.30;;;19.90;49.60;;;;;;4991915;28;20086;-60
2022/03/16 04:16:36;;;;;;;3.58;2.20;;;19.90;49.60;;;;;;4992484;28;20042;-60
2022/03/16 04:19:01;;;;;;;3.55;2.40;;;19.80;49.50;;;;;;4993395;28;20046;-60
2022/03/16 04:21:27;;;;;;;3.50;2.22;;;19.90;49.60;;;;;;4993058;28;20062;-60
2022/03/16 04:23:54;;;;;;;2.35;1.90;;;19.90;49.50;;;;;;4992742;28;20875;-60
2022/03/16 04:26:19;;;;;;;3.42;2.15;;;19.90;49.50;;;;;;4992963;28;20046;-60
2022/03/16 04:28:45;;;;;;;3.00;2.28;;;19.90;49.50;;;;;;4993284;28;20449;-60
2022/03/16 04:31:11;;;;;;;3.22;1.88;;;19.90;49.50;;;;;;4992475;28;20042;-60
2022/03/16 04:33:37;;;;;;;4.15;2.03;;;19.90;49.50;;;;;;4993455;28;20046;-60
2022/03/16 04:36:03;;;;;;;2.85;2.17;;;19.90;49.50;;;;;;4993198;28;20054;-61
2022/03/16 04:38:29;;;;;;;3.45;2.25;;;19.90;49.40;;;;;;4992435;28;20054;-60
2022/03/16 04:40:54;;;;;;;4.07;2.25;;;19.90;49.40;;;;;;4993442;28;20138;-60
2022/03/16 04:43:20;;;;;;;3.30;2.15;;;19.90;49.40;;;;;;4993145;28;20459;-60
2022/03/16 04:45:45;;;;;;;3.30;2.10;;;20.00;49.40;;;;;;4992525;28;20130;-60
2022/03/16 04:48:11;;;;;;;3.17;1.80;;;20.00;49.40;;;;;;4992930;28;20077;-60
2022/03/16 04:50:40;;;;;;;3.30;2.00;;;20.00;49.30;;;;;;4993394;28;20046;-60
2022/03/16 04:53:06;;;;;;;3.30;2.17;;;20.00;49.30;;;;;;4992094;28;20137;-60
2022/03/16 04:55:35;;;;;;;3.38;2.17;;;20.00;49.30;;;;;;4991763;28;20129;-60
2022/03/16 04:58:04;;;;;;;2.72;1.92;;;20.00;49.30;;;;;;4993295;28;20062;-60
2022/03/16 05:00:30;;;;;;;3.10;2.00;;;20.00;49.30;;;;;;4992379;28;20042;-59
2022/03/16 05:02:55;;;;;;;2.58;1.77;;;20.00;49.30;;;;;;4993126;28;20402;-59
2022/03/16 05:05:21;;;;;;;2.90;1.90;;;20.00;49.20;;;;;;4992131;28;20050;-60
2022/03/16 05:07:47;;;;;;;3.00;2.15;;;20.00;49.20;;;;;;4991151;28;20050;-60
2022/03/16 05:10:13;;;;;;;2.60;1.98;;;20.00;49.30;;;;;;4992507;28;20054;-60
2022/03/16 05:12:42;;;;;;;3.17;1.73;;;20.00;49.20;;;;;;4992996;28;20042;-59
2022/03/16 05:15:15;;;;;;;2.88;2.05;;;20.10;49.30;;;;;;4992077;28;20038;-59
2022/03/16 05:17:41;;;;;;;2.42;1.80;;;20.10;49.30;;;;;;4992828;28;20126;-60
2022/03/16 05:20:07;;;;;;;2.88;1.65;;;20.10;49.30;;;;;;4991796;28;20054;-60
2022/03/16 05:22:49;;;;;;;3.58;1.73;;;20.10;49.20;;;;;;4992669;28;20038;-60
2022/03/16 05:25:23;;;;;;;2.65;1.85;;;20.10;49.30;;;;;;4994804;28;20065;-60
2022/03/16 05:27:48;;;;;;;3.30;2.00;;;20.10;49.20;;;;;;4996202;28;20042;-60
2022/03/16 05:30:14;;;;;;;3.03;2.13;;;20.10;49.30;;;;;;4996484;28;20085;-60
2022/03/16 05:32:41;;;;;;;3.30;2.00;;;20.10;49.20;;;;;;4996274;28;20536;-60
2022/03/16 05:35:10;;;;;;;2.75;2.00;;;20.10;49.10;;;;;;4995158;28;20073;-60
2022/03/16 05:37:36;;;;;;;2.90;1.88;;;20.10;49.10;;;;;;4995036;28;20391;-59
2022/03/16 05:40:01;;;;;;;3.08;1.92;;;20.10;49.10;;;;;;4996294;28;20521;-60
2022/03/16 05:42:27;;;;;;;2.72;1.95;;;20.10;49.10;;;;;;4995518;28;20042;-59
2022/03/16 05:44:54;;;;;;;3.53;1.95;;;20.10;49.10;;;;;;4996237;28;20070;-60
2022/03/16 05:47:23;;;;;;;2.20;1.53;;;20.10;49.00;;;;;;4994753;28;20483;-60
2022/03/16 05:49:52;;;;;;;2.65;1.80;;;20.10;49.00;;;;;;4995618;28;20046;-60
2022/03/16 05:52:21;;;;;;;3.53;2.22;;;20.10;49.00;;;;;;4995936;28;20050;-60
2022/03/16 05:54:54;;;;;;;1.98;1.50;;;20.20;49.00;;;;;;4995962;28;20129;-59
2022/03/16 05:57:19;;;;;;;3.13;1.80;;;20.20;49.00;;;;;;4995366;28;20133;-60
2022/03/16 05:59:45;;;;;;;3.80;1.50;;;20.20;49.00;;;;;;4996177;28;20133;-60
2022/03/16 06:02:11;;;;;;;4.53;1.85;;;20.20;48.90;;;;;;4994532;28;20038;-60
2022/03/16 06:04:37;;;;;;;3.70;2.03;;;20.20;48.80;;;;;;4996062;28;20088;-60
2022/03/16 06:07:04;;;;;;;2.95;1.90;;;20.20;48.80;;;;;;4995607;28;20085;-60
2022/03/16 06:09:29;;;;;;;6.28;2.30;;;20.20;48.70;;;;;;4995215;28;20060;-60
2022/03/16 06:11:55;;;;;;;4.78;2.08;;;20.20;48.70;;;;;;4995824;28;20493;-60
2022/03/16 06:14:20;;;;;;;4.78;1.73;;;20.20;48.70;;;;;;4995004;28;20556;-60
2022/03/16 06:16:47;;;;;;;4.57;2.08;;;20.20;48.70;;;;;;4994706;28;20186;-60
2022/03/16 06:19:13;;;;;;;4.07;1.90;;;20.20;48.70;;;;;;4994355;28;20137;-61
2022/03/16 06:21:38;;;;;;;3.50;1.90;;;20.20;48.70;;;;;;4995525;28;20038;-60
2022/03/16 06:24:05;;;;;;;5.13;1.63;;;20.20;48.70;;;;;;4994692;28;20046;-62
2022/03/16 06:26:30;;;;;;;3.33;2.00;;;20.20;48.80;;;;;;4994334;28;20074;-60
2022/03/16 06:28:56;;;;;;;5.43;2.05;;;20.20;48.90;;;;;;4995479;28;20077;-59
2022/03/16 06:31:21;;;;;;;5.63;2.30;;;20.20;49.00;;;;;;4993958;28;20528;-60
2022/03/16 06:33:47;;;;;;;4.32;1.70;;;20.30;49.20;;;;;;4995421;28;20042;-60
2022/03/16 06:36:12;;;;;;;5.03;2.05;;;20.30;49.40;;;;;;4994146;28;20043;-60
2022/03/16 06:38:38;;;;;;;3.90;2.00;;;20.30;49.50;;;;;;4994324;28;20046;-60
2022/03/16 06:41:03;;;;;;;3.42;2.17;;;20.30;49.50;;;;;;4995162;28;20049;-60
2022/03/16 06:43:29;;;;;;;3.15;1.85;;;20.30;49.70;;;;;;4995450;28;20046;-60
2022/03/16 06:45:54;;;;;;;4.50;2.10;;;20.30;49.80;;;;;;4992505;28;20046;-60
2022/03/16 06:48:23;;;;;;;3.55;2.10;;;20.30;49.90;;;;;;4994595;28;20045;-60
2022/03/16 06:50:49;;;;;;;5.03;2.00;;;20.30;49.90;;;;;;4995139;28;20058;-62
2022/03/16 06:53:15;;;;;;;3.47;2.13;;;20.30;50.00;;;;;;4993771;28;20438;-59
2022/03/16 06:55:40;;;;;;;4.57;1.65;;;20.40;50.10;;;;;;4994871;28;20055;-60
2022/03/16 06:58:06;;;;;;;3.85;1.90;;;20.40;50.10;;;;;;4994631;28;20502;-60
2022/03/16 07:00:31;;;;;;;3.60;1.90;;;20.40;50.10;;;;;;4994491;28;20047;-60
2022/03/16 07:02:58;;;;;;;3.40;2.03;;;20.40;50.00;;;;;;4997639;28;20046;-60
2022/03/16 07:05:25;;;;;;;4.95;2.10;;;20.40;50.10;;;;;;4993841;28;20505;-60
2022/03/16 07:07:51;;;;;;;3.13;2.20;;;20.40;50.00;;;;;;5011956;28;20516;-60
2022/03/16 07:10:16;;;;;;;3.63;1.83;;;20.40;50.10;;;;;;5013979;28;20041;-60
2022/03/16 07:12:42;;;;;;;5.93;2.13;;;20.40;50.20;;;;;;5013273;28;20791;-60
2022/03/16 07:15:09;;;;;;;3.85;1.95;;;20.40;50.10;;;;;;5013822;28;20108;-60
2022/03/16 07:17:34;;;;;;;2.53;1.50;;;20.40;50.10;;;;;;5014242;28;20126;-60
2022/03/16 07:20:00;;;;;;;6.10;2.15;;;20.40;50.10;;;;;;5013595;28;20062;-60
2022/03/16 07:22:25;;;;;;;5.30;2.17;;;20.40;50.00;;;;;;5013891;28;20053;-61
2022/03/16 07:24:51;;;;;;;3.42;1.63;;;20.50;50.00;;;;;;5013859;28;20128;-60
2022/03/16 07:27:16;;;;;;;4.55;1.73;;;20.50;50.10;;;;;;5012887;28;20046;-60
2022/03/16 07:29:41;;;;;;;4.47;2.15;;;20.50;50.10;;;;;;5013690;28;20653;-60
2022/03/16 07:32:08;;;;;;;3.05;2.00;;;20.50;50.10;;;;;;5013306;28;20042;-60
2022/03/16 07:34:33;;;;;;;3.60;2.10;;;20.50;50.20;;;;;;5013065;28;20045;-61
2022/03/16 07:36:58;;;;;;;2.55;1.50;;;20.50;50.10;;;;;;5013762;28;20052;-63
2022/03/16 07:39:24;;;;;;;3.65;1.92;;;20.50;50.10;;;;;;5013418;28;20053;-60
2022/03/16 07:41:49;;;;;;;3.70;1.90;;;20.50;50.10;;;;;;5013134;28;20049;-60
2022/03/16 07:44:15;;;;;;;5.05;2.15;;;20.50;50.00;;;;;;5013114;28;20486;-60
2022/03/16 07:46:41;;;;;;;5.47;2.00;;;20.60;50.10;;;;;;5013777;28;20049;-60
2022/03/16 07:49:07;;;;;;;5.97;1.65;;;20.60;50.40;;;;;;5012360;28;20068;-60
2022/03/16 07:51:32;;;;;;;3.92;2.00;;;20.60;50.50;;;;;;5013469;28;20077;-60
2022/03/16 07:53:58;;;;;;;4.30;2.00;;;20.60;50.60;;;;;;4992727;28;20468;-59
2022/03/16 07:56:23;;;;;;;4.10;1.95;;;20.70;50.60;;;;;;4992451;28;20038;-61
2022/03/16 07:58:49;;;;;;;3.55;1.95;;;20.70;50.70;;;;;;4993581;28;20435;-60
2022/03/16 08:01:14;;;;;;;4.93;2.00;;;20.70;50.70;;;;;;4993621;28;20046;-60
2022/03/16 08:03:40;;;;;;;3.47;2.08;;;20.70;50.80;;;;;;4998109;28;20042;-60
2022/03/16 08:06:05;;;;;;;4.07;1.63;;;20.70;50.80;;;;;;5012924;28;20073;-60
2022/03/16 08:08:31;;;;;;;3.50;1.90;;;20.70;50.90;;;;;;5013436;28;20042;-60
2022/03/16 08:10:58;;;;;;;3.15;2.08;;;20.70;50.80;;;;;;5012477;28;20129;-61
2022/03/16 08:13:24;;;;;;;2.65;1.75;;;20.80;50.90;;;;;;5013094;28;20053;-61
2022/03/16 08:15:49;;;;;;;3.38;1.90;;;20.80;50.90;;;;;;5012758;28;20045;-61
2022/03/16 08:18:15;;;;;;;2.38;1.60;;;20.80;51.00;;;;;;5012894;28;20046;-61
2022/03/16 08:20:40;;;;;;;3.70;1.98;;;20.80;50.90;;;;;;5013342;28;20056;-61
2022/03/16 08:23:06;;;;;;;3.95;1.83;;;20.80;51.00;;;;;;5012290;28;20041;-61
2022/03/16 08:25:32;;;;;;;5.47;1.98;;;20.80;51.00;;;;;;5013148;28;20056;-60
2022/03/16 08:27:59;;;;;;;3.22;1.60;;;20.90;51.10;;;;;;5013260;28;20129;-61
2022/03/16 08:30:24;;;;;;;3.35;1.88;;;20.90;51.00;;;;;;5011893;28;20444;-62
2022/03/16 08:32:50;;;;;;;6.03;1.92;;;20.90;51.00;;;;;;5013153;28;20489;-61
2022/03/16 08:35:15;;;;;;;2.88;1.58;;;20.90;51.10;;;;;;4995349;28;20094;-60
2022/03/16 08:37:41;;;;;;;3.80;1.85;;;20.90;51.00;;;;;;4973132;28;20105;-60
2022/03/16 08:40:07;;;;;;;3.53;1.95;;;21.00;51.00;;;;;;4973519;28;20051;-61
2022/03/16 08:42:32;;;;;;;5.32;1.90;;;21.00;50.90;;;;;;4973379;28;20130;-60
2022/03/16 08:44:58;;;;;;;3.55;1.80;;;21.00;50.90;;;;;;4972314;28;20081;-60
2022/03/16 08:47:23;;;;;;;3.28;1.67;;;21.00;50.90;;;;;;4973865;28;20429;-60
2022/03/16 08:49:51;;;;;;;4.40;2.00;;;21.00;50.80;;;;;;4973726;28;20395;-60
2022/03/16 08:52:17;;;;;;;5.13;2.03;;;21.00;50.80;;;;;;4972853;28;20042;-60
2022/03/16 08:54:43;;;;;;;5.35;2.10;;;21.00;50.70;;;;;;4973851;28;20066;-60
2022/03/16 08:57:09;;;;;;;3.25;1.50;;;21.00;50.70;;;;;;4973541;28;20121;-60
2022/03/16 08:59:35;;;;;;;3.65;1.92;;;21.10;50.70;;;;;;4974290;28;20531;-60
2022/03/16 09:02:01;;;;;;;3.75;2.05;;;21.10;50.70;;;;;;4977576;28;20466;-60
2022/03/16 09:04:26;;;;;;;3.50;2.05;;;21.10;50.70;;;;;;4977472;28;20078;-60
2022/03/16 09:06:52;;;;;;;3.38;1.83;;;21.10;50.70;;;;;;4977042;28;20050;-61
2022/03/16 09:09:18;;;;;;;2.72;1.70;;;21.10;50.60;;;;;;4976239;28;20054;-60
2022/03/16 09:11:44;;;;;;;3.75;2.15;;;21.10;50.60;;;;;;4977794;28;20043;-60
2022/03/16 09:14:09;;;;;;;3.55;1.80;;;21.20;50.70;;;;;;4976284;28;20046;-60
2022/03/16 09:16:35;;;;;;;4.28;1.83;;;21.20;50.60;;;;;;4977316;28;20105;-60
2022/03/16 09:19:01;;;;;;;4.22;2.38;;;21.20;50.60;;;;;;4976866;28;20106;-60
2022/03/16 09:21:26;;;;;;;3.90;2.20;;;21.20;50.70;;;;;;4975551;28;20133;-60
2022/03/16 09:23:53;;;;;;;6.70;3.10;;;21.20;50.70;;;;;;4977111;28;20084;-61
2022/03/16 09:26:21;;;;;;;5.07;2.50;;;21.20;50.70;;;;;;4976316;28;20050;-60
2022/03/16 09:28:46;;;;;;;5.95;2.85;;;21.20;50.70;;;;;;4977000;28;20521;-61
2022/03/16 09:31:12;;;;;;;6.18;2.60;;;21.20;50.70;;;;;;4976629;28;20050;-61
2022/03/16 09:33:37;;;;;;;6.25;2.45;;;21.20;50.60;;;;;;4995177;28;20043;-61
2022/03/16 09:36:08;;;;;;;6.53;3.08;;;21.20;50.80;;;;;;4996453;28;20053;-61
2022/03/16 09:38:36;;;;;;;5.68;2.80;;;21.20;50.80;;;;;;4996472;28;20125;-60
2022/03/16 09:41:02;;;;;;;6.10;2.75;;;21.30;50.90;;;;;;4995602;28;20141;-61
2022/03/16 09:43:31;;;;;;;4.70;2.65;;;21.30;51.00;;;;;;5011620;28;20117;-61
2022/03/16 09:46:06;;;;;;;5.50;3.03;;;21.30;50.90;;;;;;4996463;28;20054;-61
2022/03/16 09:48:32;;;;;;;5.53;2.55;;;21.30;50.90;;;;;;5010270;28;20118;-61
2022/03/16 09:50:58;;;;;;;4.65;2.42;;;21.30;50.90;;;;;;4996624;28;20070;-61
2022/03/16 09:53:26;;;;;;;6.55;2.75;;;21.30;51.00;;;;;;4996444;28;20046;-61
2022/03/16 09:55:53;;;;;;;5.30;2.72;;;21.30;50.90;;;;;;4994969;28;20046;-61
2022/03/16 09:58:20;;;;;;;4.15;2.50;;;21.30;50.90;;;;;;4995227;28;20561;-61
2022/03/16 10:00:49;;;;;;;9.40;3.10;;;21.30;50.90;;;;;;4995864;28;20157;-60
2022/03/16 10:03:15;;;;;;;7.75;3.10;;;21.30;51.00;;;;;;4994916;28;20049;-60
2022/03/16 10:05:41;;;;;;;4.28;2.90;;;21.30;51.10;;;;;;4995647;28;20042;-61
2022/03/16 10:08:08;;;;;;;6.85;2.90;;;21.30;51.10;;;;;;4995426;28;20496;-61
2022/03/16 10:13:21;;;;;;;5.38;2.30;;;21.30;51.40;;;;;;4995111;28;20086;-61
2022/03/16 10:15:48;;;;;;;4.70;2.42;;;21.30;51.10;;;;;;4994587;28;20089;-61
2022/03/16 10:18:19;;;;;;;4.97;2.58;;;21.30;51.10;;;;;;4995246;28;20074;-61
2022/03/16 10:20:45;;;;;;;5.15;2.40;;;21.40;51.10;;;;;;5011569;28;20049;-61
2022/03/16 10:23:18;;;;;;;5.57;2.60;;;21.40;51.10;;;;;;4990188;28;20054;-61
2022/03/16 10:25:45;;;;;;;4.65;2.35;;;21.40;51.00;;;;;;4974219;28;20053;-62
2022/03/16 10:28:20;;;;;;;6.22;3.17;;;21.40;51.50;;;;;;4975983;28;20047;-61
2022/03/16 10:30:52;;;;;;;4.97;3.20;;;21.40;50.60;;;;;;4975388;28;20118;-62
2022/03/16 10:33:19;;;;;;;4.40;2.75;;;21.40;50.30;;;;;;4974596;28;20082;-61
2022/03/16 10:35:54;;;;;;;5.72;3.28;;;21.40;50.10;;;;;;4975974;28;20051;-61
2022/03/16 10:38:21;;;;;;;5.32;3.08;;;21.40;49.80;;;;;;4975053;28;20117;-62
2022/03/16 10:40:46;;;;;;;6.72;3.65;;;21.30;49.80;;;;;;4990604;28;20062;-62
2022/03/16 10:48:56;;;;;;;5.53;2.92;;;21.30;49.70;;;;;;4995462;28;20042;-62
2022/03/16 10:51:22;;;;;;;5.15;2.45;;;21.30;49.90;;;;;;4993896;28;20126;-62
2022/03/16 10:53:50;;;;;;;5.22;2.28;;;21.40;50.10;;;;;;4994940;28;20046;-62
2022/03/16 10:56:17;;;;;;;5.68;2.80;;;21.40;50.10;;;;;;5009679;28;20050;-62
2022/03/16 10:58:42;;;;;;;6.35;2.85;;;21.30;50.10;;;;;;5009476;28;20054;-62
2022/03/16 11:01:08;;;;;;;6.63;3.05;;;21.30;50.10;;;;;;5009268;28;20049;-61
2022/03/16 11:03:36;;;;;;;4.05;2.38;;;21.30;50.00;;;;;;4994849;28;20047;-61
2022/03/16 11:06:03;;;;;;;5.70;2.75;;;21.30;50.00;;;;;;4986609;28;20046;-59
2022/03/16 11:08:29;;;;;;;4.22;2.60;;;21.30;50.00;;;;;;4973981;28;20403;-60
2022/03/16 11:10:54;;;;;;;5.95;2.30;;;21.30;49.90;;;;;;4991236;28;20513;-59
2022/03/16 11:13:30;;;;;;;5.72;2.70;;;21.30;49.80;;;;;;5008797;28;20042;-59
2022/03/16 11:15:58;;;;;;;7.47;2.70;;;21.30;49.80;;;;;;4994900;28;20053;-59
2022/03/16 11:18:24;;;;;;;5.72;2.28;;;21.30;49.70;;;;;;4993071;28;20073;-59
2022/03/16 11:20:51;;;;;;;5.82;2.38;;;21.30;49.60;;;;;;4993540;28;20494;-60
2022/03/16 11:26:37;;;;;;;6.18;2.40;;;21.30;49.60;;;;;;5012657;28;20517;-60
2022/03/16 11:29:12;;;;;;;4.32;2.40;;;21.30;49.70;;;;;;5008369;28;20125;-59
2022/03/16 11:31:42;;;;;;;6.45;2.67;;;21.30;49.80;;;;;;5009439;28;20050;-59
2022/03/16 11:34:10;;;;;;;6.38;3.22;;;21.30;49.80;;;;;;4993058;28;20046;-60
2022/03/16 11:36:42;;;;;;;4.88;2.60;;;21.30;49.60;;;;;;4994132;28;20486;-60
2022/03/16 11:39:19;;;;;;;4.80;2.40;;;21.30;50.30;;;;;;4993779;28;20050;-60
2022/03/16 11:42:02;;;;;;;5.57;2.67;;;21.30;49.50;;;;;;4992749;28;20053;-60
2022/03/16 11:44:29;;;;;;;5.13;2.95;;;21.30;49.50;;;;;;4992724;28;20074;-60
2022/03/16 11:47:09;;;;;;;5.28;2.67;;;21.30;49.70;;;;;;4992997;28;20042;-60
2022/03/16 11:49:38;;;;;;;6.53;2.92;;;21.30;49.50;;;;;;4994211;28;20042;-60
2022/03/16 11:52:04;;;;;;;6.10;2.92;;;21.30;49.50;;;;;;4992745;28;20046;-58
2022/03/16 11:54:42;;;;;;;5.00;2.70;;;21.30;49.50;;;;;;4993098;28;20096;-59
2022/03/16 11:57:08;;;;;;;;;;;21.30;49.50;;;;;;4992145;28;20038;-59
2022/03/16 11:59:35;;;;;;;5.18;2.78;;;21.30;49.50;;;;;;4993830;28;19928;-58
2022/03/16 12:02:12;;;;;;;5.10;2.63;;;21.30;49.70;;;;;;4993360;28;20046;-57
2022/03/16 12:04:42;;;;;;;6.75;2.63;;;21.30;49.80;;;;;;4993889;28;20046;-59
2022/03/16 12:07:18;;;;;;;4.40;2.28;;;21.30;50.50;;;;;;4992157;28;20180;-58
2022/03/16 12:09:45;;;;;;;6.18;2.70;;;21.30;49.80;;;;;;4993126;28;20054;-58
2022/03/16 12:12:51;;;;;;;6.72;2.70;;;21.40;49.90;;;;;;4993391;28;20052;-58
2022/03/16 12:15:21;;;;;;;4.43;2.20;;;21.30;49.80;;;;;;4992938;28;20057;-58
2022/03/16 12:17:55;;;;;;;4.85;2.38;;;21.30;49.90;;;;;;4993880;28;20133;-58
2022/03/16 12:20:21;;;;;;;5.82;2.60;;;21.30;50.00;;;;;;4993178;28;20507;-58
2022/03/16 12:22:52;;;;;;;6.22;2.58;;;21.40;50.00;;;;;;4992790;28;20050;-59
2022/03/16 12:25:27;;;;;;;5.45;2.40;;;21.40;50.10;;;;;;4993053;28;20054;-58
2022/03/16 12:30:45;;;;;;;5.68;2.72;;;21.40;49.90;;;;;;4989787;28;20082;-60
2022/03/16 12:33:19;;;;;;;6.17;2.10;;;21.40;49.90;;;;;;4992600;28;20409;-61
2022/03/16 12:35:52;;;;;;;4.82;2.10;;;21.40;50.00;;;;;;5011189;28;20049;-61
2022/03/16 12:38:19;;;;;;;6.55;2.45;;;21.40;49.90;;;;;;5007000;28;20096;-61
2022/03/16 12:43:30;;;;;;;5.57;2.25;;;21.40;49.90;;;;;;4992726;28;20047;-61
2022/03/16 12:46:27;;;;;;;4.60;2.35;;;21.50;50.00;;;;;;4990661;28;20050;-62
2022/03/16 12:48:59;;;;;;;6.22;2.50;;;21.50;50.00;;;;;;5011253;28;20115;-59
2022/03/16 12:51:52;;;;;;;5.50;2.38;;;21.50;50.70;;;;;;5011481;28;20057;-59
2022/03/16 12:54:23;;;;;;;4.82;2.20;;;21.50;50.00;;;;;;4990010;28;20051;-59
2022/03/16 12:56:50;;;;;;;6.50;2.70;;;21.50;50.00;;;;;;4992687;28;20042;-59
2022/03/16 12:59:29;;;;;;;5.20;2.50;;;21.50;49.80;;;;;;4991408;28;20050;-59
2022/03/16 13:02:10;;;;;;;5.03;2.22;;;21.60;49.70;;;;;;4993396;28;20047;-59
2022/03/16 13:04:37;;;;;;;4.15;2.30;;;21.50;49.60;;;;;;4992487;28;20491;-59